createdAt,value
2023-01-23T00:01:41.052Z,12.30
2023-01-23T00:04:12.677Z,12.25
2023-01-23T00:09:09.659Z,12.38
2023-01-23T00:11:37.643Z,12.50
2023-01-23T00:14:06.041Z,11.82
2023-01-23T00:16:34.498Z,12.73
2023-01-23T00:19:02.692Z,12.23
2023-01-23T00:21:31.294Z,10.93
2023-01-23T00:24:01.858Z,11.90
2023-01-23T00:26:33.169Z,11.57
2023-01-23T00:29:02.169Z,11.32
2023-01-23T00:31:35.867Z,11.50
2023-01-23T00:34:08.321Z,10.98
2023-01-23T00:36:39.948Z,10.30
2023-01-23T00:41:46.964Z,10.75
2023-01-23T00:44:16.538Z,9.75
2023-01-23T00:46:44.675Z,10.88
2023-01-23T00:49:13.029Z,10.40
2023-01-23T00:51:40.969Z,9.77
2023-01-23T00:54:08.977Z,9.40
2023-01-23T00:56:37.212Z,8.90
2023-01-23T00:59:05.381Z,8.48
2023-01-23T01:01:33.957Z,9.30
2023-01-23T01:04:02.495Z,9.10
2023-01-23T01:06:31.367Z,9.60
2023-01-23T01:09:00.490Z,8.52
2023-01-23T01:11:32.782Z,9.50
2023-01-23T01:14:01.729Z,9.75
2023-01-23T01:16:30.265Z,8.23
2023-01-23T01:18:59.640Z,7.78
2023-01-23T01:21:28.250Z,9.18
2023-01-23T01:23:56.452Z,8.50
2023-01-23T01:26:27.299Z,8.40
2023-01-23T01:28:55.889Z,8.27
2023-01-23T01:31:26.567Z,7.97
2023-01-23T01:33:55.769Z,8.02
2023-01-23T01:36:24.858Z,7.75
2023-01-23T01:38:52.711Z,8.57
2023-01-23T01:41:20.711Z,7.22
2023-01-23T01:43:49.059Z,7.72
2023-01-23T01:46:26.831Z,6.97
2023-01-23T01:49:30.993Z,6.95
2023-01-23T01:52:10.479Z,8.30
2023-01-23T01:54:54.875Z,7.43
2023-01-23T01:57:31.427Z,7.05
2023-01-23T02:00:11.329Z,7.65
2023-01-23T02:03:12.887Z,7.40
2023-01-23T02:05:45.519Z,7.90
2023-01-23T02:08:46.969Z,7.15
2023-01-23T02:11:17.086Z,7.47
2023-01-23T02:13:46.119Z,7.10
2023-01-23T02:16:23.895Z,7.13
2023-01-23T02:18:59.055Z,7.65
2023-01-23T02:21:27.726Z,7.30
2023-01-23T02:24:48.471Z,6.90
2023-01-23T02:27:18.060Z,6.78
2023-01-23T02:29:48.430Z,6.68
2023-01-23T02:32:19.841Z,6.80
2023-01-23T02:34:49.168Z,6.95
2023-01-23T02:37:17.746Z,6.88
2023-01-23T02:39:45.873Z,7.38
2023-01-23T02:42:14.164Z,6.55
2023-01-23T02:44:47.422Z,7.88
2023-01-23T02:49:46.886Z,6.78
2023-01-23T02:52:15.539Z,6.90
2023-01-23T02:54:43.643Z,7.40
2023-01-23T02:57:11.485Z,7.63
2023-01-23T03:00:03.052Z,7.15
2023-01-23T03:02:32.867Z,7.32
2023-01-23T03:05:00.852Z,7.60
2023-01-23T03:07:29.496Z,6.78
2023-01-23T03:09:57.533Z,6.68
2023-01-23T03:12:25.851Z,7.47
2023-01-23T03:14:58.956Z,7.10
2023-01-23T03:17:28.933Z,6.70
2023-01-23T03:19:57.884Z,6.63
2023-01-23T03:22:26.882Z,6.60
2023-01-23T03:24:57.900Z,6.60
2023-01-23T03:27:25.985Z,5.97
2023-01-23T03:30:16.201Z,6.20
2023-01-23T03:32:45.917Z,5.80
2023-01-23T03:35:20.644Z,6.30
2023-01-23T03:42:05.818Z,6.75
2023-01-23T03:44:33.871Z,6.38
2023-01-23T03:47:01.868Z,6.68
2023-01-23T03:49:30.554Z,6.75
2023-01-23T03:52:00.393Z,6.35
2023-01-23T03:54:29.806Z,7.30
2023-01-23T03:56:57.987Z,7.47
2023-01-23T03:59:44.727Z,6.50
2023-01-23T04:02:13.527Z,6.88
2023-01-23T04:04:41.587Z,7.40
2023-01-23T04:07:10.664Z,6.95
2023-01-23T04:09:40.911Z,6.53
2023-01-23T04:12:09.327Z,7.30
2023-01-23T04:14:41.314Z,6.90
2023-01-23T04:17:11.256Z,6.80
2023-01-23T04:19:39.134Z,7.05
2023-01-23T04:22:07.803Z,6.78
2023-01-23T04:24:42.087Z,6.47
2023-01-23T04:27:10.203Z,7.25
2023-01-23T04:29:38.637Z,6.57
2023-01-23T04:37:01.254Z,6.55
2023-01-23T04:39:29.524Z,7.45
2023-01-23T04:41:57.671Z,7.28
2023-01-23T04:44:39.445Z,6.85
2023-01-23T04:47:25.802Z,6.10
2023-01-23T04:49:54.031Z,6.30
2023-01-23T04:52:21.998Z,5.22
2023-01-23T04:54:58.266Z,6.00
2023-01-23T04:57:26.627Z,6.85
2023-01-23T05:00:12.321Z,6.38
2023-01-23T05:02:40.396Z,6.55
2023-01-23T05:05:10.058Z,6.13
2023-01-23T05:07:39.619Z,6.43
2023-01-23T05:10:12.952Z,6.40
2023-01-23T05:12:41.647Z,6.53
2023-01-23T05:15:11.423Z,6.10
2023-01-23T05:17:42.273Z,6.53
2023-01-23T05:20:12.170Z,6.25
2023-01-23T05:22:52.719Z,7.03
2023-01-23T05:25:28.148Z,7.00
2023-01-23T05:27:57.936Z,7.57
2023-01-23T05:30:26.836Z,7.05
2023-01-23T05:33:04.757Z,7.47
2023-01-23T05:35:32.910Z,7.60
2023-01-23T05:38:01.555Z,8.15
2023-01-23T05:40:29.688Z,7.85
2023-01-23T05:43:15.981Z,8.48
2023-01-23T05:46:03.707Z,8.38
2023-01-23T05:48:40.647Z,9.18
2023-01-23T05:51:12.301Z,8.05
2023-01-23T05:53:42.846Z,9.05
2023-01-23T05:56:12.596Z,8.73
2023-01-23T05:58:56.222Z,8.68
2023-01-23T06:01:43.290Z,9.30
2023-01-23T06:04:30.095Z,8.10
2023-01-23T06:07:15.632Z,8.85
2023-01-23T06:09:43.950Z,9.52
2023-01-23T06:12:12.888Z,9.23
2023-01-23T06:14:40.776Z,8.75
2023-01-23T06:22:36.454Z,9.38
2023-01-23T06:25:10.435Z,9.63
2023-01-23T06:27:39.012Z,9.27
2023-01-23T06:30:10.687Z,10.25
2023-01-23T06:32:43.162Z,8.65
2023-01-23T06:35:12.220Z,10.07
2023-01-23T06:37:42.943Z,10.10
2023-01-23T06:40:15.010Z,9.60
2023-01-23T06:42:54.754Z,9.55
2023-01-23T06:45:23.890Z,9.35
2023-01-23T06:47:53.590Z,10.82
2023-01-23T06:50:22.227Z,9.38
2023-01-23T06:52:51.031Z,9.88
2023-01-23T06:55:21.313Z,9.43
2023-01-23T06:57:49.607Z,9.32
2023-01-23T07:00:18.593Z,10.07
2023-01-23T07:02:47.016Z,10.65
2023-01-23T07:05:15.439Z,10.95
2023-01-23T07:07:47.120Z,9.35
2023-01-23T07:10:15.139Z,10.13
2023-01-23T07:12:43.222Z,9.23
2023-01-23T07:15:11.978Z,10.45
2023-01-23T07:17:42.149Z,10.55
2023-01-23T07:20:11.144Z,9.82
2023-01-23T07:22:46.625Z,10.68
2023-01-23T07:25:14.626Z,10.75
2023-01-23T07:27:42.634Z,11.13
2023-01-23T07:30:13.671Z,10.75
2023-01-23T07:32:41.644Z,12.25
2023-01-23T07:35:10.301Z,12.45
2023-01-23T07:37:38.748Z,11.27
2023-01-23T07:40:07.344Z,10.93
2023-01-23T07:42:35.807Z,11.38
2023-01-23T07:45:04.420Z,12.23
2023-01-23T07:47:32.609Z,11.23
2023-01-23T07:50:00.621Z,11.60
2023-01-23T07:52:28.975Z,10.95
2023-01-23T07:54:57.227Z,11.80
2023-01-23T07:57:25.210Z,10.80
2023-01-23T07:59:56.514Z,10.68
2023-01-23T08:02:24.428Z,10.13
2023-01-23T08:04:52.452Z,10.07
2023-01-23T08:07:20.721Z,9.85
2023-01-23T08:09:48.763Z,9.63
2023-01-23T08:12:16.709Z,9.25
2023-01-23T08:14:44.932Z,9.70
2023-01-23T08:17:12.901Z,9.45
2023-01-23T08:19:40.926Z,9.45
2023-01-23T08:22:09.028Z,8.98
2023-01-23T08:24:37.160Z,9.20
2023-01-23T08:27:05.456Z,9.65
2023-01-23T08:36:14.804Z,9.20
2023-01-23T08:38:42.939Z,10.30
2023-01-23T08:41:14.583Z,11.57
2023-01-23T08:46:11.782Z,9.95
2023-01-23T08:48:40.259Z,10.27
2023-01-23T08:51:12.994Z,10.90
2023-01-23T08:53:42.434Z,11.23
2023-01-23T08:56:19.382Z,10.85
2023-01-23T08:58:47.993Z,10.55
2023-01-23T09:01:23.261Z,11.98
2023-01-23T09:03:51.699Z,11.63
2023-01-23T09:06:22.962Z,11.77
2023-01-23T09:08:51.407Z,11.32
2023-01-23T09:11:20.143Z,11.02
2023-01-23T09:13:48.396Z,11.80
2023-01-23T09:16:17.459Z,12.82
2023-01-23T09:18:45.865Z,12.23
2023-01-23T09:21:17.737Z,12.40
2023-01-23T09:23:48.041Z,12.07
2023-01-23T09:26:19.708Z,11.98
2023-01-23T09:28:47.968Z,12.77
2023-01-23T09:31:16.803Z,13.70
2023-01-23T09:33:45.043Z,13.13
2023-01-23T09:36:14.403Z,14.05
2023-01-23T09:38:42.744Z,13.93
2023-01-23T09:41:23.840Z,15.95
2023-01-23T09:44:03.205Z,14.02
2023-01-23T09:46:54.367Z,14.55
2023-01-23T09:50:02.288Z,14.55
2023-01-23T09:52:37.033Z,14.65
2023-01-23T09:55:36.398Z,12.68
2023-01-23T09:58:05.936Z,13.27
2023-01-23T10:00:34.584Z,13.55
2023-01-23T10:03:11.752Z,14.38
2023-01-23T10:06:20.480Z,14.50
2023-01-23T10:09:09.505Z,14.57
2023-01-23T10:12:18.953Z,14.57
2023-01-23T10:15:40.498Z,13.48
2023-01-23T10:18:49.416Z,13.63
2023-01-23T10:22:22.249Z,14.55
2023-01-23T10:24:55.480Z,13.15
2023-01-23T10:27:46.189Z,13.10
2023-01-23T10:30:33.794Z,13.88
2023-01-23T10:33:29.354Z,14.38
2023-01-23T10:36:03.736Z,13.30
2023-01-23T10:38:59.911Z,14.90
2023-01-23T10:41:28.343Z,15.40
2023-01-23T10:43:57.719Z,15.07
2023-01-23T10:46:35.996Z,14.88
2023-01-23T10:49:04.641Z,13.63
2023-01-23T10:51:49.107Z,13.05
2023-01-23T10:54:33.084Z,15.70
2023-01-23T10:57:24.881Z,14.82
2023-01-23T11:00:18.047Z,12.25
2023-01-23T11:02:46.570Z,15.73
2023-01-23T11:05:51.623Z,15.07
2023-01-23T11:08:51.912Z,14.32
2023-01-23T11:11:25.927Z,14.70
2023-01-23T11:14:17.087Z,15.70
2023-01-23T11:16:45.154Z,15.63
2023-01-23T11:19:22.044Z,15.10
2023-01-23T11:21:55.279Z,14.65
2023-01-23T11:24:38.392Z,15.80
2023-01-23T11:27:13.597Z,15.20
2023-01-23T11:30:09.322Z,14.07
2023-01-23T11:33:15.082Z,13.73
2023-01-23T11:35:56.158Z,14.65
2023-01-23T11:38:32.375Z,13.88
2023-01-23T11:41:00.955Z,13.95
2023-01-23T11:43:29.096Z,13.65
2023-01-23T11:46:26.248Z,13.55
2023-01-23T11:49:20.659Z,13.55
2023-01-23T11:52:33.990Z,12.45
2023-01-23T11:55:45.701Z,12.75
2023-01-23T12:01:23.052Z,15.63
2023-01-23T12:04:05.540Z,14.20
2023-01-23T12:06:49.384Z,11.95
2023-01-23T12:09:21.561Z,13.10
2023-01-23T12:12:40.379Z,12.75
2023-01-23T12:16:05.804Z,13.50
2023-01-23T12:18:47.633Z,13.27
2023-01-23T12:21:48.893Z,13.00
2023-01-23T12:24:45.792Z,12.10
2023-01-23T12:27:44.827Z,12.98
2023-01-23T12:30:40.673Z,11.82
2023-01-23T12:33:33.557Z,11.60
2023-01-23T12:36:44.417Z,12.10
2023-01-23T12:40:08.603Z,11.43
2023-01-23T12:43:23.033Z,11.52
2023-01-23T12:46:06.079Z,11.23
2023-01-23T12:48:45.572Z,11.40
2023-01-23T12:51:27.439Z,11.07
2023-01-23T12:53:58.880Z,10.98
2023-01-23T12:56:33.973Z,12.18
2023-01-23T12:59:31.586Z,11.23
2023-01-23T13:02:35.835Z,12.02
2023-01-23T13:05:40.395Z,11.25
2023-01-23T13:08:38.408Z,11.25
2023-01-23T13:11:39.699Z,11.02
2023-01-23T13:14:32.744Z,11.00
2023-01-23T13:17:04.188Z,11.43
2023-01-23T13:19:59.487Z,11.32
2023-01-23T13:22:34.173Z,10.93
2023-01-23T13:25:10.533Z,10.68
2023-01-23T13:27:58.862Z,11.68
2023-01-23T13:30:27.329Z,11.95
2023-01-23T13:33:01.857Z,11.68
2023-01-23T13:35:45.122Z,11.02
2023-01-23T13:38:22.487Z,11.00
2023-01-23T13:41:06.281Z,11.45
2023-01-23T13:43:54.198Z,10.98
2023-01-23T13:46:31.187Z,11.82
2023-01-23T14:22:08.643Z,12.65
2023-01-23T14:24:53.431Z,13.20
2023-01-23T14:27:51.352Z,13.50
2023-01-23T14:30:30.420Z,13.73
2023-01-23T14:33:01.853Z,13.00
2023-01-23T14:35:33.455Z,14.65
2023-01-23T14:38:07.479Z,15.75
2023-01-23T14:40:50.224Z,14.23
2023-01-23T14:43:27.004Z,14.07
2023-01-23T14:46:11.896Z,13.27
2023-01-23T14:48:43.647Z,13.57
2023-01-23T14:53:56.528Z,14.30
2023-01-23T14:56:36.222Z,13.20
2023-01-23T14:59:16.427Z,13.48
2023-01-23T15:01:55.381Z,14.38
2023-01-23T15:04:28.082Z,13.85
2023-01-23T15:07:01.875Z,12.73
2023-01-23T15:09:43.440Z,14.75
2023-01-23T15:12:19.105Z,17.67
2023-01-23T15:14:53.106Z,15.50
2023-01-23T15:17:22.701Z,16.17
2023-01-23T15:19:56.699Z,16.60
2023-01-23T15:22:30.105Z,14.85
2023-01-23T15:25:38.452Z,16.40
2023-01-23T15:28:39.279Z,15.70
2023-01-23T15:31:28.599Z,15.70
2023-01-23T15:34:16.353Z,15.07
2023-01-23T15:37:09.573Z,15.88
2023-01-23T15:39:54.939Z,16.60
2023-01-23T15:42:35.075Z,16.55
2023-01-23T15:45:13.253Z,16.52
2023-01-23T15:47:42.138Z,15.90
2023-01-23T15:50:13.753Z,16.42
2023-01-23T15:52:54.002Z,16.00
2023-01-23T15:55:28.454Z,16.85
2023-01-23T15:57:57.347Z,15.30
2023-01-23T16:00:28.963Z,15.93
2023-01-23T16:02:59.601Z,15.45
2023-01-23T16:05:36.208Z,15.90
2023-01-23T16:08:06.976Z,15.32
2023-01-23T16:10:38.569Z,15.27
2023-01-23T16:13:08.406Z,15.60
2023-01-23T16:15:39.702Z,15.30
2023-01-23T16:18:07.975Z,15.18
2023-01-23T16:20:44.329Z,14.88
2023-01-23T16:23:24.970Z,13.90
2023-01-23T16:25:56.219Z,14.73
2023-01-23T16:28:29.593Z,15.80
2023-01-23T16:30:59.019Z,14.32
2023-01-23T16:33:27.257Z,14.50
2023-01-23T16:35:58.044Z,16.10
2023-01-23T16:38:29.358Z,16.03
2023-01-23T16:41:00.404Z,15.48
2023-01-23T16:43:28.913Z,16.17
2023-01-23T16:45:57.994Z,16.02
2023-01-23T16:48:28.576Z,17.35
2023-01-23T16:51:08.605Z,16.17
2023-01-23T16:53:42.618Z,16.23
2023-01-23T16:56:28.709Z,15.70
2023-01-23T16:58:56.835Z,16.23
2023-01-23T17:01:25.658Z,16.40
2023-01-23T17:03:59.695Z,17.02
2023-01-23T17:06:27.949Z,16.60
2023-01-23T17:08:56.752Z,16.88
2023-01-23T17:11:34.304Z,14.35
2023-01-23T17:14:30.118Z,15.68
2023-01-23T17:17:10.334Z,14.40
2023-01-23T17:19:41.834Z,15.05
2023-01-23T17:22:27.490Z,15.68
2023-01-23T17:24:58.901Z,13.48
2023-01-23T17:29:58.373Z,13.65
2023-01-23T17:32:37.675Z,14.35
2023-01-23T17:35:17.383Z,14.65
2023-01-23T17:37:45.623Z,14.35
2023-01-23T17:40:18.134Z,15.45
2023-01-23T17:42:46.560Z,14.55
2023-01-23T17:45:20.617Z,14.57
2023-01-23T17:47:55.532Z,15.05
2023-01-23T17:50:26.810Z,14.45
2023-01-23T17:52:58.579Z,15.20
2023-01-23T17:55:33.136Z,15.43
2023-01-23T17:58:01.766Z,14.80
2023-01-23T18:00:31.495Z,16.20
2023-01-23T18:03:02.599Z,14.90
2023-01-23T18:05:30.854Z,14.60
2023-01-23T18:07:59.064Z,15.65
2023-01-23T18:10:30.177Z,13.43
2023-01-23T18:13:50.930Z,14.80
2023-01-23T18:16:45.774Z,14.57
2023-01-23T18:19:22.952Z,14.65
2023-01-23T18:21:57.708Z,14.48
2023-01-23T18:24:32.671Z,14.93
2023-01-23T18:27:27.538Z,13.93
2023-01-23T18:30:56.441Z,13.90
2023-01-23T18:33:37.620Z,13.52
2023-01-23T18:36:23.657Z,13.93
2023-01-23T18:39:25.928Z,14.25
2023-01-23T18:42:35.806Z,12.50
2023-01-23T18:45:15.040Z,14.80
2023-01-23T18:47:44.972Z,13.57
2023-01-23T18:50:19.479Z,14.80
2023-01-23T18:53:21.443Z,14.82
2023-01-23T18:56:22.612Z,13.65
2023-01-23T18:59:41.306Z,13.70
2023-01-23T19:02:39.804Z,14.45
2023-01-23T19:05:14.354Z,14.40
2023-01-23T19:07:45.361Z,13.77
2023-01-23T19:10:19.527Z,15.05
2023-01-23T19:12:59.404Z,16.13
2023-01-23T19:15:34.077Z,14.50
2023-01-23T19:18:49.947Z,15.45
2023-01-23T19:21:26.786Z,16.42
2023-01-23T19:24:01.899Z,15.77
2023-01-23T19:26:40.326Z,15.32
2023-01-23T19:29:21.625Z,14.90
2023-01-23T19:34:35.913Z,15.27
2023-01-23T19:37:04.469Z,16.42
2023-01-23T19:39:32.797Z,15.77
2023-01-23T19:42:01.657Z,14.30
2023-01-23T19:44:32.897Z,14.63
2023-01-23T19:47:03.112Z,14.43
2023-01-23T19:49:31.555Z,14.55
2023-01-23T19:51:59.672Z,14.20
2023-01-23T19:54:27.817Z,13.63
2023-01-23T19:56:56.203Z,13.88
2023-01-23T19:59:26.278Z,14.43
2023-01-23T20:01:55.138Z,13.13
2023-01-23T20:04:24.799Z,14.55
2023-01-23T20:06:53.059Z,13.52
2023-01-23T20:09:22.244Z,13.18
2023-01-23T20:11:52.610Z,12.65
2023-01-23T20:14:22.289Z,12.32
2023-01-23T20:16:50.867Z,12.77
2023-01-23T20:19:23.949Z,13.55
2023-01-23T20:21:52.217Z,12.63
2023-01-23T20:24:21.519Z,13.10
2023-01-23T20:26:49.842Z,13.10
2023-01-23T20:29:18.137Z,12.95
2023-01-23T20:31:46.905Z,12.55
2023-01-23T20:34:15.249Z,12.40
2023-01-23T20:36:43.590Z,12.85
2023-01-23T20:39:14.140Z,12.75
2023-01-23T20:41:43.075Z,14.20
2023-01-23T20:44:11.774Z,13.18
2023-01-23T20:46:40.051Z,14.02
2023-01-23T20:49:13.106Z,14.07
2023-01-23T20:51:42.938Z,13.80
2023-01-23T20:54:11.362Z,13.35
2023-01-23T20:56:39.901Z,13.10
2023-01-23T20:59:24.214Z,12.70
2023-01-23T21:02:20.554Z,13.45
2023-01-23T21:04:54.854Z,13.20
2023-01-23T21:07:23.276Z,12.95
2023-01-23T21:09:52.885Z,11.90
2023-01-23T21:12:25.962Z,13.35
2023-01-23T21:14:55.435Z,13.00
2023-01-23T21:17:24.276Z,12.65
2023-01-23T21:19:53.871Z,11.73
2023-01-23T21:22:23.469Z,13.10
2023-01-23T21:24:55.813Z,13.50
2023-01-23T21:27:25.314Z,13.65
2023-01-23T21:29:55.525Z,13.27
2023-01-23T21:32:24.348Z,11.68
2023-01-23T21:34:54.559Z,13.05
2023-01-23T21:37:23.688Z,12.15
2023-01-23T21:39:52.942Z,13.15
2023-01-23T21:42:22.793Z,11.00
2023-01-23T21:44:56.284Z,12.18
2023-01-23T21:47:27.149Z,11.73
2023-01-23T21:52:32.709Z,11.85
2023-01-23T21:55:01.879Z,12.50
2023-01-23T21:57:31.826Z,13.13
2023-01-23T22:00:20.835Z,12.50
2023-01-23T22:02:53.615Z,12.27
2023-01-23T22:05:23.871Z,11.85
2023-01-23T22:07:52.493Z,12.48
2023-01-23T22:10:21.155Z,12.25
2023-01-23T22:12:51.030Z,11.15
2023-01-23T22:15:19.906Z,11.27
2023-01-23T22:17:49.189Z,11.18
2023-01-23T22:20:18.563Z,10.77
2023-01-23T22:22:47.108Z,11.93
2023-01-23T22:25:15.528Z,11.60
2023-01-23T22:27:44.319Z,12.10
2023-01-23T22:30:13.396Z,10.77
2023-01-23T22:32:41.636Z,12.27
2023-01-23T22:35:11.344Z,11.82
2023-01-23T22:37:41.927Z,11.88
2023-01-23T22:40:11.546Z,11.80
2023-01-23T22:42:40.349Z,11.15
2023-01-23T22:45:10.799Z,11.80
2023-01-23T22:47:39.738Z,11.02
2023-01-23T22:50:09.909Z,11.13
2023-01-23T22:52:38.653Z,11.20
2023-01-23T22:55:07.933Z,11.23
2023-01-23T22:57:37.212Z,11.30
2023-01-23T23:00:16.643Z,10.68
2023-01-23T23:02:44.768Z,11.25
2023-01-23T23:05:13.214Z,11.43
2023-01-23T23:07:41.629Z,11.00
2023-01-23T23:10:11.910Z,11.07
2023-01-23T23:12:40.216Z,10.32
2023-01-23T23:15:09.252Z,9.90
2023-01-23T23:17:37.378Z,11.15
2023-01-23T23:20:07.107Z,10.32
2023-01-23T23:22:35.350Z,10.05
2023-01-23T23:25:03.668Z,10.30
2023-01-23T23:27:33.330Z,10.13
2023-01-23T23:30:02.286Z,10.45
2023-01-23T23:32:31.526Z,10.40
2023-01-23T23:34:59.731Z,9.73
2023-01-23T23:37:28.552Z,10.57
2023-01-23T23:39:57.324Z,8.95
2023-01-23T23:42:25.670Z,9.05
2023-01-23T23:44:54.148Z,8.77
2023-01-23T23:47:22.712Z,10.13
2023-01-23T23:49:50.793Z,9.43
2023-01-23T23:52:19.727Z,9.80
2023-01-23T23:54:48.026Z,9.93
2023-01-23T23:57:15.972Z,8.57
2023-01-23T23:59:44.266Z,9.55
